createdAt,value
2019-01-19T00:00:19.553Z,86.35
2019-01-19T00:05:36.930Z,86.02
2019-01-19T00:10:58.305Z,85.52
2019-01-19T00:16:07.046Z,85.72
2019-01-19T00:21:24.176Z,86.38
2019-01-19T00:26:52.475Z,86.57
2019-01-19T00:32:09.210Z,86.38
2019-01-19T00:37:27.610Z,86.12
2019-01-19T00:42:46.523Z,86.12
2019-01-19T00:48:03.311Z,86.19
2019-01-19T00:53:11.754Z,85.82
2019-01-19T00:58:26.296Z,85.77
2019-01-19T01:03:36.165Z,86.36
2019-01-19T01:08:56.515Z,86.48
2019-01-19T01:14:17.251Z,86.83
2019-01-19T01:19:33.185Z,86.92
2019-01-19T01:24:50.176Z,86.96
2019-01-19T01:30:10.974Z,87.09
2019-01-19T01:35:32.908Z,86.79
2019-01-19T01:40:58.266Z,87.24
2019-01-19T01:46:14.262Z,87.13
2019-01-19T01:51:30.474Z,87.25
2019-01-19T01:56:33.211Z,87.50
2019-01-19T02:02:01.843Z,87.46
2019-01-19T02:07:16.822Z,87.25
2019-01-19T02:12:32.003Z,87.39
2019-01-19T02:17:51.215Z,87.11
2019-01-19T02:23:18.776Z,87.03
2019-01-19T02:28:35.352Z,87.44
2019-01-19T02:33:52.270Z,87.72
2019-01-19T02:39:07.342Z,87.52
2019-01-19T02:44:18.794Z,87.41
2019-01-19T02:49:38.423Z,87.50
2019-01-19T02:54:57.321Z,87.82
2019-01-19T03:00:27.397Z,87.79
2019-01-19T03:05:37.347Z,87.83
2019-01-19T03:11:09.547Z,87.84
2019-01-19T03:16:30.242Z,88.07
2019-01-19T03:21:51.329Z,88.13
2019-01-19T03:26:59.263Z,88.31
2019-01-19T03:32:16.950Z,88.21
2019-01-19T03:37:34.083Z,87.87
2019-01-19T03:42:51.777Z,87.79
2019-01-19T03:48:10.699Z,87.92
2019-01-19T03:53:32.443Z,87.78
2019-01-19T03:58:44.702Z,87.64
2019-01-19T04:04:00.020Z,87.74
2019-01-19T04:09:21.230Z,87.90
2019-01-19T04:14:39.369Z,87.68
2019-01-19T04:19:53.828Z,87.68
2019-01-19T04:25:07.272Z,87.70
2019-01-19T04:30:11.472Z,87.42
2019-01-19T04:35:14.028Z,87.70
2019-01-19T04:40:16.647Z,87.79
2019-01-19T04:45:19.212Z,87.97
2019-01-19T04:50:21.980Z,87.98
2019-01-19T04:55:25.574Z,87.75
2019-01-19T05:00:28.192Z,87.91
2019-01-19T05:05:30.859Z,87.92
2019-01-19T05:10:33.474Z,87.98
2019-01-19T05:15:36.030Z,87.68
2019-01-19T05:20:38.615Z,87.85
2019-01-19T05:25:41.162Z,87.94
2019-01-19T05:30:43.767Z,87.76
2019-01-19T05:35:46.382Z,87.19
2019-01-19T05:40:49.049Z,87.18
2019-01-19T05:45:51.607Z,86.94
2019-01-19T05:50:54.345Z,87.00
2019-01-19T05:55:57.942Z,86.86
2019-01-19T06:01:00.483Z,86.75
2019-01-19T06:06:03.927Z,86.90
2019-01-19T06:11:06.488Z,86.62
2019-01-19T06:16:09.133Z,86.55
2019-01-19T06:21:12.092Z,86.15
2019-01-19T06:26:14.653Z,86.00
2019-01-19T06:31:17.127Z,86.16
2019-01-19T06:36:19.808Z,86.21
2019-01-19T06:41:22.302Z,86.20
2019-01-19T06:46:24.872Z,86.50
2019-01-19T06:51:27.422Z,86.35
2019-01-19T06:56:30.957Z,86.60
2019-01-19T07:01:33.600Z,86.66
2019-01-19T07:06:36.163Z,86.69
2019-01-19T07:11:38.813Z,86.47
2019-01-19T07:16:41.392Z,86.57
2019-01-19T07:21:43.974Z,86.78
2019-01-19T07:26:46.562Z,86.83
2019-01-19T07:31:49.133Z,86.62
2019-01-19T07:36:51.691Z,86.50
2019-01-19T07:41:54.247Z,86.15
2019-01-19T07:46:58.025Z,86.37
2019-01-19T07:52:00.533Z,86.40
2019-01-19T07:57:04.047Z,86.37
2019-01-19T08:02:06.712Z,86.45
2019-01-19T08:07:09.452Z,86.57
2019-01-19T08:12:12.054Z,86.99
2019-01-19T08:17:14.749Z,87.24
2019-01-19T08:22:17.373Z,87.42
2019-01-19T08:27:20.041Z,86.88
2019-01-19T08:32:22.661Z,86.81
2019-01-19T08:37:25.417Z,86.62
2019-01-19T08:42:28.623Z,86.58
2019-01-19T08:47:31.254Z,86.69
2019-01-19T08:52:33.953Z,86.87
2019-01-19T08:57:36.723Z,86.69
2019-01-19T09:02:39.517Z,86.67
2019-01-19T09:07:42.127Z,87.03
2019-01-19T09:12:44.611Z,87.11
2019-01-19T09:17:47.142Z,87.35
2019-01-19T09:22:53.378Z,87.06
2019-01-19T09:27:56.051Z,86.88
2019-01-19T09:32:58.952Z,86.58
2019-01-19T09:38:01.702Z,87.17
2019-01-19T09:43:07.127Z,88.40
2019-01-19T09:48:10.107Z,87.17
2019-01-19T09:53:13.092Z,83.43
2019-01-19T09:58:16.572Z,78.19
2019-01-19T10:03:19.114Z,81.54
2019-01-19T10:08:21.647Z,84.05
2019-01-19T10:13:24.094Z,85.73
2019-01-19T10:18:26.954Z,86.23
2019-01-19T10:23:29.616Z,86.60
2019-01-19T10:28:32.406Z,87.03
2019-01-19T10:33:34.977Z,86.93
2019-01-19T10:38:37.622Z,86.44
2019-01-19T10:43:40.431Z,86.53
2019-01-19T10:48:42.957Z,86.72
2019-01-19T10:53:45.611Z,86.90
2019-01-19T10:58:49.000Z,86.21
2019-01-19T11:03:51.917Z,85.08
2019-01-19T11:08:54.392Z,83.87
2019-01-19T11:13:57.074Z,83.02
2019-01-19T11:18:59.642Z,82.34
2019-01-19T11:24:02.257Z,81.97
2019-01-19T11:29:04.942Z,83.12
2019-01-19T11:34:07.672Z,83.56
2019-01-19T11:39:10.163Z,80.45
2019-01-19T11:44:12.647Z,78.86
2019-01-19T11:49:15.131Z,76.01
2019-01-19T11:54:17.798Z,70.19
2019-01-19T11:59:21.387Z,72.62
2019-01-19T12:04:24.007Z,73.75
2019-01-19T12:09:26.681Z,75.95
2019-01-19T12:14:29.334Z,78.93
2019-01-19T12:19:32.046Z,80.84
2019-01-19T12:24:34.673Z,81.70
2019-01-19T12:29:37.362Z,82.04
2019-01-19T12:34:39.992Z,81.79
2019-01-19T12:39:42.578Z,82.28
2019-01-19T12:44:45.297Z,83.17
2019-01-19T12:49:47.973Z,84.22
2019-01-19T12:54:50.687Z,84.46
2019-01-19T12:59:54.181Z,80.86
2019-01-19T13:04:56.687Z,78.25
2019-01-19T13:10:08.038Z,78.51
2019-01-19T13:15:29.199Z,80.56
2019-01-19T13:20:47.423Z,82.98
2019-01-19T13:26:09.037Z,84.21
2019-01-19T13:31:30.343Z,85.28
2019-01-19T13:36:48.164Z,84.96
2019-01-19T13:42:05.481Z,85.66
2019-01-19T13:47:24.431Z,86.58
2019-01-19T13:52:39.936Z,86.73
2019-01-19T13:57:54.302Z,85.75
2019-01-19T14:03:10.278Z,85.30
2019-01-19T14:08:36.153Z,85.00
2019-01-19T14:14:07.463Z,85.45
2019-01-19T14:19:32.037Z,86.29
2019-01-19T14:24:45.961Z,85.93
2019-01-19T14:30:07.318Z,85.38
2019-01-19T14:35:21.483Z,86.85
2019-01-19T14:40:48.005Z,84.09
2019-01-19T14:46:19.326Z,83.86
2019-01-19T14:51:35.483Z,83.10
2019-01-19T14:56:47.717Z,82.31
2019-01-19T15:02:05.951Z,82.61
2019-01-19T15:07:29.707Z,82.94
2019-01-19T15:12:48.171Z,80.76
2019-01-19T15:18:16.658Z,77.71
2019-01-19T15:23:47.331Z,79.41
2019-01-19T15:29:07.048Z,81.15
2019-01-19T15:34:25.439Z,82.20
2019-01-19T15:39:36.976Z,82.52
2019-01-19T15:44:54.333Z,82.76
2019-01-19T15:50:12.129Z,80.59
2019-01-19T15:55:33.197Z,80.37
2019-01-19T16:00:47.721Z,81.32
2019-01-19T16:06:09.442Z,82.80
2019-01-19T16:11:23.091Z,81.68
2019-01-19T16:16:43.810Z,80.65
2019-01-19T16:22:05.092Z,80.44
2019-01-19T16:27:21.357Z,81.19
2019-01-19T16:32:41.622Z,82.41
2019-01-19T16:37:59.242Z,83.29
2019-01-19T16:43:20.254Z,84.84
2019-01-19T16:48:40.902Z,86.00
2019-01-19T16:53:55.962Z,86.46
2019-01-19T16:59:14.326Z,86.77
2019-01-19T17:04:45.327Z,87.19
2019-01-19T17:09:53.743Z,87.73
2019-01-19T17:15:12.870Z,87.91
2019-01-19T17:20:28.352Z,87.96
2019-01-19T17:25:47.231Z,88.14
2019-01-19T17:31:06.494Z,88.48
2019-01-19T17:36:34.632Z,88.79
2019-01-19T17:41:55.244Z,88.89
2019-01-19T17:47:07.592Z,88.76
2019-01-19T17:52:39.535Z,88.75
2019-01-19T17:58:00.152Z,88.60
2019-01-19T18:03:20.853Z,88.61
2019-01-19T18:08:49.566Z,88.86
2019-01-19T18:14:06.318Z,88.69
2019-01-19T18:19:19.194Z,88.60
2019-01-19T18:24:40.245Z,88.43
2019-01-19T18:30:01.374Z,88.55
2019-01-19T18:35:14.065Z,88.30
2019-01-19T18:40:29.053Z,88.08
2019-01-19T18:45:50.452Z,87.75
2019-01-19T18:51:06.933Z,87.80
2019-01-19T18:56:24.385Z,88.12
2019-01-19T19:01:37.792Z,88.23
2019-01-19T19:07:02.412Z,88.21
2019-01-19T19:12:19.732Z,88.01
2019-01-19T19:17:36.652Z,88.09
2019-01-19T19:23:07.389Z,87.77
2019-01-19T19:28:26.929Z,87.86
2019-01-19T19:33:43.953Z,87.98
2019-01-19T19:39:02.432Z,87.66
2019-01-19T19:44:18.986Z,87.67
2019-01-19T19:49:35.512Z,87.67
2019-01-19T19:54:38.291Z,87.20
2019-01-19T19:59:41.913Z,87.57
2019-01-19T20:04:44.531Z,87.71
2019-01-19T20:09:47.231Z,87.63
2019-01-19T20:14:50.016Z,87.57
2019-01-19T20:19:53.001Z,87.40
2019-01-19T20:24:55.772Z,87.17
2019-01-19T20:29:58.445Z,86.99
2019-01-19T20:35:01.229Z,87.30
2019-01-19T20:40:04.892Z,87.29
2019-01-19T20:45:09.114Z,87.18
2019-01-19T20:50:11.931Z,86.87
2019-01-19T20:55:14.632Z,86.74
2019-01-19T21:00:17.412Z,86.95
2019-01-19T21:05:20.115Z,87.29
2019-01-19T21:10:22.672Z,87.12
2019-01-19T21:15:25.291Z,87.26
2019-01-19T21:20:27.906Z,86.88
2019-01-19T21:25:30.765Z,86.60
2019-01-19T21:30:33.450Z,86.77
2019-01-19T21:35:36.037Z,87.49
2019-01-19T21:40:39.165Z,87.32
2019-01-19T21:45:41.927Z,86.77
2019-01-19T21:50:44.391Z,86.58
2019-01-19T21:55:46.922Z,86.73
2019-01-19T22:00:49.409Z,86.80
2019-01-19T22:05:51.954Z,86.49
2019-01-19T22:10:54.672Z,86.82
2019-01-19T22:15:57.234Z,87.70
2019-01-19T22:20:59.792Z,88.07
2019-01-19T22:26:02.352Z,88.05
2019-01-19T22:31:05.012Z,88.40
2019-01-19T22:36:07.557Z,88.42
2019-01-19T22:41:10.112Z,87.87
2019-01-19T22:46:12.637Z,88.07
2019-01-19T22:51:15.312Z,88.32
2019-01-19T22:56:17.932Z,88.53
2019-01-19T23:01:25.911Z,88.41
2019-01-19T23:06:28.532Z,88.81
2019-01-19T23:11:34.004Z,88.84
2019-01-19T23:16:35.731Z,88.93
2019-01-19T23:21:38.425Z,89.28
2019-01-19T23:26:41.411Z,89.23
2019-01-19T23:31:44.180Z,88.98
2019-01-19T23:36:46.912Z,88.62
2019-01-19T23:41:49.511Z,88.37
2019-01-19T23:46:52.052Z,88.17
2019-01-19T23:51:54.652Z,87.86
2019-01-19T23:56:57.272Z,87.54
